sensor_id;sensor_type;location;lat;lon;timestamp;pressure;altitude;pressure_sealevel;temperature;humidity
37132;BME280;23035;50.032;21.978;2023-07-29T00:04:09;67061.63;;;17.97;100.00
37132;BME280;23035;50.032;21.978;2023-07-29T00:09:14;67009.25;;;17.45;100.00
37132;BME280;23035;50.032;21.978;2023-07-29T00:14:18;66981.31;;;17.22;100.00
37132;BME280;23035;50.032;21.978;2023-07-29T00:19:23;67022.72;;;17.58;100.00
37132;BME280;23035;50.032;21.978;2023-07-29T00:24:28;66957.50;;;16.97;100.00
37132;BME280;23035;50.032;21.978;2023-07-29T00:29:32;66909.00;;;16.51;100.00
37132;BME280;23035;50.032;21.978;2023-07-29T00:34:36;66927.78;;;16.66;100.00
37132;BME280;23035;50.032;21.978;2023-07-29T00:39:42;66944.03;;;16.84;100.00
37132;BME280;23035;50.032;21.978;2023-07-29T00:44:46;67006.50;;;17.40;100.00
37132;BME280;23035;50.032;21.978;2023-07-29T00:49:51;66904.69;;;16.47;100.00
37132;BME280;23035;50.032;21.978;2023-07-29T00:54:56;66943.50;;;16.83;100.00
37132;BME280;23035;50.032;21.978;2023-07-29T01:00:00;66986.22;;;17.29;100.00
37132;BME280;23035;50.032;21.978;2023-07-29T01:05:06;66925.69;;;16.67;100.00
37132;BME280;23035;50.032;21.978;2023-07-29T01:10:19;66940.72;;;16.78;100.00
37132;BME280;23035;50.032;21.978;2023-07-29T01:15:29;66911.16;;;16.53;100.00
37132;BME280;23035;50.032;21.978;2023-07-29T01:20:39;66881.59;;;16.27;100.00
37132;BME280;23035;50.032;21.978;2023-07-29T01:25:45;66881.00;;;16.24;100.00
37132;BME280;23035;50.032;21.978;2023-07-29T01:30:50;66919.16;;;16.58;100.00
37132;BME280;23035;50.032;21.978;2023-07-29T01:36:00;66959.59;;;16.96;100.00
37132;BME280;23035;50.032;21.978;2023-07-29T01:41:08;66961.34;;;17.03;100.00
37132;BME280;23035;50.032;21.978;2023-07-29T01:46:14;66872.97;;;16.19;100.00
37132;BME280;23035;50.032;21.978;2023-07-29T01:51:18;66885.75;;;16.26;100.00
37132;BME280;23035;50.032;21.978;2023-07-29T01:56:24;66858.97;;;16.06;100.00
37132;BME280;23035;50.032;21.978;2023-07-29T02:01:31;66802.81;;;15.48;100.00
37132;BME280;23035;50.032;21.978;2023-07-29T02:06:35;66905.16;;;16.45;100.00
37132;BME280;23035;50.032;21.978;2023-07-29T02:11:41;66897.75;;;16.43;100.00
37132;BME280;23035;50.032;21.978;2023-07-29T02:16:45;66920.84;;;16.62;100.00
37132;BME280;23035;50.032;21.978;2023-07-29T02:21:49;66894.50;;;16.40;100.00
37132;BME280;23035;50.032;21.978;2023-07-29T02:26:55;66907.47;;;16.52;100.00
37132;BME280;23035;50.032;21.978;2023-07-29T02:32:00;66831.38;;;15.75;100.00
37132;BME280;23035;50.032;21.978;2023-07-29T02:37:04;66847.03;;;15.92;100.00
37132;BME280;23035;50.032;21.978;2023-07-29T02:42:12;66873.44;;;16.17;100.00
37132;BME280;23035;50.032;21.978;2023-07-29T02:47:16;66993.53;;;17.28;100.00
37132;BME280;23035;50.032;21.978;2023-07-29T02:52:20;66904.53;;;16.42;100.00
37132;BME280;23035;50.032;21.978;2023-07-29T02:57:26;66800.66;;;15.46;100.00
37132;BME280;23035;50.032;21.978;2023-07-29T03:02:30;66923.00;;;16.64;100.00
37132;BME280;23035;50.032;21.978;2023-07-29T03:07:37;66774.34;;;15.24;100.00
37132;BME280;23035;50.032;21.978;2023-07-29T03:12:46;66921.94;;;16.63;100.00
37132;BME280;23035;50.032;21.978;2023-07-29T03:17:54;66905.16;;;16.45;100.00
37132;BME280;23035;50.032;21.978;2023-07-29T03:23:02;66835.81;;;15.84;100.00
37132;BME280;23035;50.032;21.978;2023-07-29T03:28:08;66849.75;;;15.95;100.00
37132;BME280;23035;50.032;21.978;2023-07-29T03:33:12;66879.91;;;16.23;100.00
37132;BME280;23035;50.032;21.978;2023-07-29T03:38:16;66920.31;;;16.61;100.00
37132;BME280;23035;50.032;21.978;2023-07-29T03:43:22;67006.63;;;17.45;100.00
37132;BME280;23035;50.032;21.978;2023-07-29T03:48:26;67076.00;;;18.03;100.00
37132;BME280;23035;50.032;21.978;2023-07-29T03:53:30;67091.25;;;18.23;100.00
37132;BME280;23035;50.032;21.978;2023-07-29T03:58:35;67088.00;;;18.20;100.00
37132;BME280;23035;50.032;21.978;2023-07-29T04:03:39;67039.47;;;17.74;100.00
37132;BME280;23035;50.032;21.978;2023-07-29T04:08:44;67027.44;;;17.58;100.00
37132;BME280;23035;50.032;21.978;2023-07-29T04:13:52;67144.13;;;18.73;100.00
37132;BME280;23035;50.032;21.978;2023-07-29T04:18:57;67155.88;;;18.79;100.00
37132;BME280;23035;50.032;21.978;2023-07-29T04:24:01;67179.22;;;19.06;100.00
37132;BME280;23035;50.032;21.978;2023-07-29T04:29:09;67241.19;;;19.59;100.00
37132;BME280;23035;50.032;21.978;2023-07-29T04:34:14;67283.97;;;20.04;100.00
37132;BME280;23035;50.032;21.978;2023-07-29T04:39:21;67197.97;;;19.18;100.00
37132;BME280;23035;50.032;21.978;2023-07-29T04:44:26;67253.25;;;19.78;100.00
37132;BME280;23035;50.032;21.978;2023-07-29T04:49:30;67323.28;;;20.37;100.00
37132;BME280;23035;50.032;21.978;2023-07-29T04:54:34;67337.53;;;20.57;100.00
37132;BME280;23035;50.032;21.978;2023-07-29T04:59:40;67387.19;;;21.02;100.00
37132;BME280;23035;50.032;21.978;2023-07-29T05:04:44;67328.34;;;20.49;100.00
37132;BME280;23035;50.032;21.978;2023-07-29T05:09:48;67344.44;;;20.59;100.00
37132;BME280;23035;50.032;21.978;2023-07-29T05:14:54;67338.56;;;20.56;100.00
37132;BME280;23035;50.032;21.978;2023-07-29T05:19:58;67408.75;;;21.19;100.00
37132;BME280;23035;50.032;21.978;2023-07-29T05:25:03;67478.56;;;21.88;100.00
37132;BME280;23035;50.032;21.978;2023-07-29T05:30:09;67463.50;;;21.76;100.00
37132;BME280;23035;50.032;21.978;2023-07-29T05:35:14;67403.94;;;21.17;100.00
37132;BME280;23035;50.032;21.978;2023-07-29T05:40:18;67390.50;;;21.07;100.00
37132;BME280;23035;50.032;21.978;2023-07-29T05:45:25;67520.28;;;22.29;100.00
37132;BME280;23035;50.032;21.978;2023-07-29T05:50:29;67481.34;;;21.93;100.00
37132;BME280;23035;50.032;21.978;2023-07-29T05:55:33;67495.81;;;22.01;100.00
37132;BME280;23035;50.032;21.978;2023-07-29T06:07:59;67598.06;;;22.95;100.00
37132;BME280;23035;50.032;21.978;2023-07-29T06:16:29;67554.84;;;22.59;100.00
37132;BME280;23035;50.032;21.978;2023-07-29T06:41:41;67639.34;;;23.41;100.00
37132;BME280;23035;50.032;21.978;2023-07-29T06:46:48;67577.63;;;22.83;100.00
37132;BME280;23035;50.032;21.978;2023-07-29T06:51:52;67627.38;;;23.28;100.00
37132;BME280;23035;50.032;21.978;2023-07-29T06:56:57;67618.72;;;23.19;100.00
37132;BME280;23035;50.032;21.978;2023-07-29T07:02:02;67734.19;;;24.33;100.00
37132;BME280;23035;50.032;21.978;2023-07-29T07:07:06;67826.88;;;25.20;92.20
37132;BME280;23035;50.032;21.978;2023-07-29T07:12:12;67865.25;;;25.51;91.04
37132;BME280;23035;50.032;21.978;2023-07-29T07:17:16;67814.84;;;25.04;98.07
37132;BME280;23035;50.032;21.978;2023-07-29T07:22:20;67875.59;;;25.63;93.29
37132;BME280;23035;50.032;21.978;2023-07-29T07:27:26;67769.31;;;24.61;98.74
37132;BME280;23035;50.032;21.978;2023-07-29T07:32:29;67780.72;;;24.74;100.00
37132;BME280;23035;50.032;21.978;2023-07-29T07:37:33;67838.09;;;25.23;97.47
37132;BME280;23035;50.032;21.978;2023-07-29T07:42:38;67786.63;;;24.77;99.00
37132;BME280;23035;50.032;21.978;2023-07-29T07:47:42;67795.31;;;24.85;96.93
37132;BME280;23035;50.032;21.978;2023-07-29T07:52:49;67777.47;;;24.71;98.81
37132;BME280;23035;50.032;21.978;2023-07-29T07:57:55;67778.44;;;24.67;100.00
37132;BME280;23035;50.032;21.978;2023-07-29T08:02:59;67713.66;;;24.16;100.00
37132;BME280;23035;50.032;21.978;2023-07-29T08:08:04;67832.88;;;25.28;94.73
37132;BME280;23035;50.032;21.978;2023-07-29T08:13:09;67745.47;;;24.39;99.22
37132;BME280;23035;50.032;21.978;2023-07-29T08:18:14;67727.03;;;24.21;100.00
37132;BME280;23035;50.032;21.978;2023-07-29T08:23:20;67810.00;;;25.02;99.52
37132;BME280;23035;50.032;21.978;2023-07-29T08:28:26;67821.34;;;25.10;97.19
37132;BME280;23035;50.032;21.978;2023-07-29T08:33:32;67852.81;;;25.42;93.82
37132;BME280;23035;50.032;21.978;2023-07-29T08:38:37;67757.44;;;24.52;100.00
37132;BME280;23035;50.032;21.978;2023-07-29T08:43:49;67888.06;;;25.75;91.92
37132;BME280;23035;50.032;21.978;2023-07-29T08:48:55;67969.88;;;26.47;87.93
37132;BME280;23035;50.032;21.978;2023-07-29T08:54:01;67858.78;;;25.48;94.96
37132;BME280;23035;50.032;21.978;2023-07-29T08:59:08;67747.16;;;24.43;100.00
37132;BME280;23035;50.032;21.978;2023-07-29T09:04:13;67726.50;;;24.21;100.00
37132;BME280;23035;50.032;21.978;2023-07-29T09:09:17;67711.94;;;24.10;100.00
37132;BME280;23035;50.032;21.978;2023-07-29T09:14:23;67675.16;;;23.78;100.00
37132;BME280;23035;50.032;21.978;2023-07-29T09:19:33;67813.75;;;25.03;94.18
37132;BME280;23035;50.032;21.978;2023-07-29T09:24:41;67827.34;;;25.18;93.04
37132;BME280;23035;50.032;21.978;2023-07-29T09:29:46;67818.06;;;25.07;96.09
37132;BME280;23035;50.032;21.978;2023-07-29T09:34:53;67763.88;;;24.56;100.00
37132;BME280;23035;50.032;21.978;2023-07-29T09:40:06;67802.94;;;24.95;99.42
37132;BME280;23035;50.032;21.978;2023-07-29T09:45:19;67833.91;;;25.27;98.53
37132;BME280;23035;50.032;21.978;2023-07-29T09:50:24;67833.31;;;25.24;96.30
37132;BME280;23035;50.032;21.978;2023-07-29T09:55:29;67817.50;;;25.04;96.88
37132;BME280;23035;50.032;21.978;2023-07-29T10:00:43;67747.63;;;24.41;100.00
37132;BME280;23035;50.032;21.978;2023-07-29T10:05:50;67883.69;;;25.68;94.43
37132;BME280;23035;50.032;21.978;2023-07-29T10:10:58;67977.66;;;26.64;89.46
37132;BME280;23035;50.032;21.978;2023-07-29T10:16:13;67836.00;;;25.26;97.59
37132;BME280;23035;50.032;21.978;2023-07-29T10:21:24;67904.28;;;25.88;94.99
37132;BME280;23035;50.032;21.978;2023-07-29T10:26:54;68069.81;;;27.46;77.64
37132;BME280;23035;50.032;21.978;2023-07-29T10:33:06;67986.25;;;26.67;81.71
37132;BME280;23035;50.032;21.978;2023-07-29T10:38:28;67940.72;;;26.27;86.58
37132;BME280;23035;50.032;21.978;2023-07-29T10:43:50;67920.66;;;26.08;87.15
37132;BME280;23035;50.032;21.978;2023-07-29T10:55:51;68153.91;;;28.22;73.08
37132;BME280;23035;50.032;21.978;2023-07-29T11:01:38;68133.34;;;28.05;71.73
37132;BME280;23035;50.032;21.978;2023-07-29T11:07:20;68133.84;;;28.03;73.11
37132;BME280;23035;50.032;21.978;2023-07-29T11:13:01;68073.13;;;27.51;73.54
37132;BME280;23035;50.032;21.978;2023-07-29T11:18:21;68094.31;;;27.71;70.08
37132;BME280;23035;50.032;21.978;2023-07-29T11:23:56;67979.19;;;26.61;77.00
37132;BME280;23035;50.032;21.978;2023-07-29T11:29:31;68150.72;;;28.21;68.09
37132;BME280;23035;50.032;21.978;2023-07-29T11:34:54;68134.94;;;28.04;68.47
37132;BME280;23035;50.032;21.978;2023-07-29T11:47:15;68138.69;;;28.05;68.04
37132;BME280;23035;50.032;21.978;2023-07-29T11:53:19;68312.06;;;29.70;62.84
37132;BME280;23035;50.032;21.978;2023-07-29T11:58:37;68219.75;;;28.89;65.35
37132;BME280;23035;50.032;21.978;2023-07-29T12:04:00;68084.50;;;27.62;71.72
37132;BME280;23035;50.032;21.978;2023-07-29T12:09:36;68061.69;;;27.38;70.97
37132;BME280;23035;50.032;21.978;2023-07-29T12:14:48;68150.22;;;28.23;66.37
37132;BME280;23035;50.032;21.978;2023-07-29T12:20:07;68364.88;;;30.24;58.54
37132;BME280;23035;50.032;21.978;2023-07-29T12:25:28;68384.84;;;30.33;58.09
37132;BME280;23035;50.032;21.978;2023-07-29T12:30:41;68305.03;;;29.66;62.81
37132;BME280;23035;50.032;21.978;2023-07-29T12:35:50;68311.56;;;29.72;61.87
37132;BME280;23035;50.032;21.978;2023-07-29T12:40:55;68109.47;;;27.83;69.38
37132;BME280;23035;50.032;21.978;2023-07-29T12:45:59;67998.13;;;26.76;77.47
37132;BME280;23035;50.032;21.978;2023-07-29T12:51:05;68009.47;;;26.84;73.61
37132;BME280;23035;50.032;21.978;2023-07-29T12:56:09;67928.16;;;26.10;78.21
37132;BME280;23035;50.032;21.978;2023-07-29T13:01:14;67930.84;;;26.13;79.93
37132;BME280;23035;50.032;21.978;2023-07-29T13:06:22;67978.06;;;26.57;78.59
37132;BME280;23035;50.032;21.978;2023-07-29T13:11:26;67983.53;;;26.65;78.58
37132;BME280;23035;50.032;21.978;2023-07-29T13:16:30;67944.97;;;26.26;80.44
37132;BME280;23035;50.032;21.978;2023-07-29T13:21:36;67965.03;;;26.45;82.30
37132;BME280;23035;50.032;21.978;2023-07-29T13:26:40;67883.75;;;25.71;84.36
37132;BME280;23035;50.032;21.978;2023-07-29T13:31:45;67927.50;;;26.05;84.46
37132;BME280;23035;50.032;21.978;2023-07-29T13:36:51;67942.31;;;26.26;84.71
37132;BME280;23035;50.032;21.978;2023-07-29T13:41:55;67915.19;;;26.00;85.77
37132;BME280;23035;50.032;21.978;2023-07-29T13:47:03;67864.16;;;25.50;90.17
37132;BME280;23035;50.032;21.978;2023-07-29T13:52:08;67948.78;;;26.32;83.06
37132;BME280;23035;50.032;21.978;2023-07-29T13:57:12;67930.91;;;26.15;82.50
37132;BME280;23035;50.032;21.978;2023-07-29T14:02:17;67991.66;;;26.72;82.34
37132;BME280;23035;50.032;21.978;2023-07-29T14:07:22;67953.09;;;26.34;84.00
37132;BME280;23035;50.032;21.978;2023-07-29T14:12:27;67958.00;;;26.38;86.17
37132;BME280;23035;50.032;21.978;2023-07-29T14:17:31;67968.25;;;26.45;86.61
37132;BME280;23035;50.032;21.978;2023-07-29T14:22:36;67916.19;;;25.96;91.58
37132;BME280;23035;50.032;21.978;2023-07-29T14:27:40;67933.13;;;26.20;90.78
37132;BME280;23035;50.032;21.978;2023-07-29T14:32:44;67922.16;;;26.05;90.63
37132;BME280;23035;50.032;21.978;2023-07-29T14:37:50;68013.81;;;26.88;89.26
37132;BME280;23035;50.032;21.978;2023-07-29T14:42:54;67956.34;;;26.37;88.83
37132;BME280;23035;50.032;21.978;2023-07-29T14:47:58;67917.25;;;25.97;94.83
37132;BME280;23035;50.032;21.978;2023-07-29T14:53:04;67864.69;;;25.51;98.22
37132;BME280;23035;50.032;21.978;2023-07-29T14:58:08;67835.44;;;25.23;100.00
37132;BME280;23035;50.032;21.978;2023-07-29T15:03:12;67769.34;;;24.64;100.00
37132;BME280;23035;50.032;21.978;2023-07-29T15:08:18;67924.75;;;25.99;97.96
37132;BME280;23035;50.032;21.978;2023-07-29T15:13:22;68060.59;;;27.37;90.78
37132;BME280;23035;50.032;21.978;2023-07-29T15:18:26;68101.88;;;27.76;81.33
37132;BME280;23035;50.032;21.978;2023-07-29T15:23:34;68158.38;;;28.31;80.30
37132;BME280;23035;50.032;21.978;2023-07-29T15:28:38;68218.06;;;28.84;76.19
37132;BME280;23035;50.032;21.978;2023-07-29T15:33:42;68498.06;;;31.44;62.50
37132;BME280;23035;50.032;21.978;2023-07-29T15:38:48;68582.50;;;32.28;58.36
37132;BME280;23035;50.032;21.978;2023-07-29T15:43:52;68630.38;;;32.70;57.15
37132;BME280;23035;50.032;21.978;2023-07-29T15:48:57;68424.09;;;30.77;64.81
37132;BME280;23035;50.032;21.978;2023-07-29T15:54:04;68423.06;;;30.79;65.41
37132;BME280;23035;50.032;21.978;2023-07-29T15:59:08;68508.47;;;31.59;63.06
37132;BME280;23035;50.032;21.978;2023-07-29T16:04:12;68440.44;;;30.93;65.43
37132;BME280;23035;50.032;21.978;2023-07-29T16:09:17;68211.56;;;28.78;75.46
37132;BME280;23035;50.032;21.978;2023-07-29T16:14:23;68058.38;;;27.32;86.72
37132;BME280;23035;50.032;21.978;2023-07-29T16:19:28;68087.13;;;27.59;87.04
37132;BME280;23035;50.032;21.978;2023-07-29T16:24:37;68051.91;;;27.29;87.93
37132;BME280;23035;50.032;21.978;2023-07-29T16:29:41;67962.78;;;26.38;93.08
37132;BME280;23035;50.032;21.978;2023-07-29T16:34:45;67920.56;;;26.03;96.19
37132;BME280;23035;50.032;21.978;2023-07-29T16:39:50;67987.84;;;26.66;92.59
37132;BME280;23035;50.032;21.978;2023-07-29T16:44:54;68019.84;;;26.96;87.31
37132;BME280;23035;50.032;21.978;2023-07-29T16:49:59;67942.25;;;26.23;88.72
37132;BME280;23035;50.032;21.978;2023-07-29T16:55:13;67937.38;;;26.19;89.86
37132;BME280;23035;50.032;21.978;2023-07-29T17:00:17;67860.91;;;25.47;94.97
37132;BME280;23035;50.032;21.978;2023-07-29T17:05:21;67888.56;;;25.73;91.40
37132;BME280;23035;50.032;21.978;2023-07-29T17:10:27;67850.13;;;25.39;97.89
37132;BME280;23035;50.032;21.978;2023-07-29T17:15:31;67896.66;;;25.78;94.22
37132;BME280;23035;50.032;21.978;2023-07-29T17:20:35;67896.16;;;25.80;91.45
37132;BME280;23035;50.032;21.978;2023-07-29T17:25:41;67843.50;;;25.28;97.09
37132;BME280;23035;50.032;21.978;2023-07-29T17:30:48;67801.81;;;24.92;99.36
37132;BME280;23035;50.032;21.978;2023-07-29T17:35:53;67780.13;;;24.71;100.00
37132;BME280;23035;50.032;21.978;2023-07-29T17:40:59;67799.09;;;24.89;100.00
37132;BME280;23035;50.032;21.978;2023-07-29T17:46:05;67654.94;;;23.51;100.00
37132;BME280;23035;50.032;21.978;2023-07-29T17:51:09;67686.38;;;23.81;100.00
37132;BME280;23035;50.032;21.978;2023-07-29T17:56:14;67731.38;;;24.25;100.00
37132;BME280;23035;50.032;21.978;2023-07-29T18:01:18;67770.94;;;24.63;100.00
37132;BME280;23035;50.032;21.978;2023-07-29T18:06:23;67714.03;;;24.09;100.00
37132;BME280;23035;50.032;21.978;2023-07-29T18:11:28;67738.59;;;24.40;100.00
37132;BME280;23035;50.032;21.978;2023-07-29T18:16:33;67756.75;;;24.44;100.00
37132;BME280;23035;50.032;21.978;2023-07-29T18:21:40;67692.38;;;23.89;100.00
37132;BME280;23035;50.032;21.978;2023-07-29T18:26:46;67659.28;;;23.55;100.00
37132;BME280;23035;50.032;21.978;2023-07-29T18:31:50;67633.34;;;23.33;100.00
37132;BME280;23035;50.032;21.978;2023-07-29T18:36:54;67652.28;;;23.51;100.00
37132;BME280;23035;50.032;21.978;2023-07-29T18:42:00;67654.88;;;23.48;100.00
37132;BME280;23035;50.032;21.978;2023-07-29T18:47:05;67651.75;;;23.51;100.00
37132;BME280;23035;50.032;21.978;2023-07-29T18:52:10;67652.34;;;23.54;100.00
37132;BME280;23035;50.032;21.978;2023-07-29T18:57:17;67670.66;;;23.66;100.00
37132;BME280;23035;50.032;21.978;2023-07-29T19:02:21;67555.94;;;22.60;100.00
37132;BME280;23035;50.032;21.978;2023-07-29T19:07:26;67581.94;;;22.85;100.00
37132;BME280;23035;50.032;21.978;2023-07-29T19:12:32;67537.41;;;22.38;100.00
37132;BME280;23035;50.032;21.978;2023-07-29T19:17:36;67545.06;;;22.48;100.00
37132;BME280;23035;50.032;21.978;2023-07-29T19:22:41;67527.19;;;22.31;100.00
37132;BME280;23035;50.032;21.978;2023-07-29T19:27:46;67515.84;;;22.20;100.00
37132;BME280;23035;50.032;21.978;2023-07-29T19:32:50;67551.03;;;22.53;100.00
37132;BME280;23035;50.032;21.978;2023-07-29T19:37:55;67507.75;;;22.13;100.00
37132;BME280;23035;50.032;21.978;2023-07-29T19:43:00;67534.28;;;22.40;100.00
37132;BME280;23035;50.032;21.978;2023-07-29T19:48:04;67543.97;;;22.47;100.00
37132;BME280;23035;50.032;21.978;2023-07-29T19:53:09;67510.38;;;22.13;100.00
37132;BME280;23035;50.032;21.978;2023-07-29T19:58:15;67538.09;;;22.44;100.00
37132;BME280;23035;50.032;21.978;2023-07-29T20:03:19;67486.69;;;21.95;100.00
37132;BME280;23035;50.032;21.978;2023-07-29T20:08:23;67502.31;;;22.08;100.00
37132;BME280;23035;50.032;21.978;2023-07-29T20:13:29;67473.22;;;21.85;100.00
37132;BME280;23035;50.032;21.978;2023-07-29T20:18:33;67450.38;;;21.59;100.00
37132;BME280;23035;50.032;21.978;2023-07-29T20:23:38;67472.03;;;21.79;100.00
37132;BME280;23035;50.032;21.978;2023-07-29T20:28:43;67466.13;;;21.76;100.00
37132;BME280;23035;50.032;21.978;2023-07-29T20:33:48;67474.66;;;21.79;100.00
37132;BME280;23035;50.032;21.978;2023-07-29T20:38:53;67413.63;;;21.24;100.00
37132;BME280;23035;50.032;21.978;2023-07-29T20:43:59;67401.59;;;21.08;100.00
37132;BME280;23035;50.032;21.978;2023-07-29T20:49:04;67423.28;;;21.31;100.00
37132;BME280;23035;50.032;21.978;2023-07-29T20:54:08;67439.16;;;21.53;100.00
37132;BME280;23035;50.032;21.978;2023-07-29T20:59:14;67454.25;;;21.65;100.00
37132;BME280;23035;50.032;21.978;2023-07-29T21:04:18;67416.88;;;21.27;100.00
37132;BME280;23035;50.032;21.978;2023-07-29T21:09:22;67432.00;;;21.41;100.00
37132;BME280;23035;50.032;21.978;2023-07-29T21:14:28;67398.47;;;21.10;100.00
37132;BME280;23035;50.032;21.978;2023-07-29T21:19:32;67370.44;;;20.86;100.00
37132;BME280;23035;50.032;21.978;2023-07-29T21:24:36;67395.22;;;21.07;100.00
37132;BME280;23035;50.032;21.978;2023-07-29T21:29:42;67345.03;;;20.62;100.00
37132;BME280;23035;50.032;21.978;2023-07-29T21:34:46;67343.34;;;20.58;100.00
37132;BME280;23035;50.032;21.978;2023-07-29T21:39:50;67409.28;;;21.20;100.00
37132;BME280;23035;50.032;21.978;2023-07-29T21:44:55;67375.28;;;20.90;100.00
37132;BME280;23035;50.032;21.978;2023-07-29T21:50:01;67327.13;;;20.43;100.00
37132;BME280;23035;50.032;21.978;2023-07-29T21:55:06;67372.59;;;20.88;100.00
37132;BME280;23035;50.032;21.978;2023-07-29T22:00:12;67377.88;;;20.88;100.00
37132;BME280;23035;50.032;21.978;2023-07-29T22:05:21;67294.72;;;20.12;100.00
37132;BME280;23035;50.032;21.978;2023-07-29T22:10:25;67209.97;;;19.35;100.00
37132;BME280;23035;50.032;21.978;2023-07-29T22:15:33;67199.06;;;19.19;100.00
37132;BME280;23035;50.032;21.978;2023-07-29T22:20:38;67337.34;;;20.50;100.00
37132;BME280;23035;50.032;21.978;2023-07-29T22:25:42;67321.72;;;20.38;100.00
37132;BME280;23035;50.032;21.978;2023-07-29T22:30:48;67293.03;;;20.08;100.00
37132;BME280;23035;50.032;21.978;2023-07-29T22:35:52;67225.56;;;19.47;100.00
37132;BME280;23035;50.032;21.978;2023-07-29T22:40:56;67343.84;;;20.56;100.00
37132;BME280;23035;50.032;21.978;2023-07-29T22:46:02;67205.06;;;19.28;100.00
37132;BME280;23035;50.032;21.978;2023-07-29T22:51:07;67194.88;;;19.20;100.00
37132;BME280;23035;50.032;21.978;2023-07-29T22:56:11;67232.03;;;19.53;100.00
37132;BME280;23035;50.032;21.978;2023-07-29T23:01:18;67284.44;;;20.02;100.00
37132;BME280;23035;50.032;21.978;2023-07-29T23:06:22;67171.53;;;18.94;100.00
37132;BME280;23035;50.032;21.978;2023-07-29T23:11:27;67243.94;;;19.64;100.00
37132;BME280;23035;50.032;21.978;2023-07-29T23:16:32;67263.88;;;19.81;100.00
37132;BME280;23035;50.032;21.978;2023-07-29T23:21:36;67158.09;;;18.83;100.00
37132;BME280;23035;50.032;21.978;2023-07-29T23:26:41;67235.31;;;19.56;100.00
37132;BME280;23035;50.032;21.978;2023-07-29T23:31:47;67275.75;;;19.92;100.00
37132;BME280;23035;50.032;21.978;2023-07-29T23:36:51;67336.38;;;20.54;100.00
37132;BME280;23035;50.032;21.978;2023-07-29T23:41:55;67201.81;;;19.25;100.00
37132;BME280;23035;50.032;21.978;2023-07-29T23:47:00;67223.88;;;19.43;100.00
37132;BME280;23035;50.032;21.978;2023-07-29T23:52:06;67191.00;;;19.14;100.00
37132;BME280;23035;50.032;21.978;2023-07-29T23:57:10;67253.19;;;19.75;100.00
